• Join FlightAware (Why Join?)
  • Login
  • US Flag 
06:48AM EDT


 

Airport Tracker/Info


-or-


 

Live Flight TrackerFlight Track Log ✈ C-FHNX ✈ 31-May-2012 ✈ CYUL - CYWG

Flight Track Log - Related Links

Times and Time Zones

All times are in EDT time to prevent confusion due to time zone crossing. See the C-FHNX flight status page for this flight to view local times or setup timezone preferences in your user account.

Time Position Orientation Groundspeed Altitude Reporting Facility
EDT Latitude Longitude Course Direction KTS MPH feet Rate Location/Type
08:23AM 45.4667 -73.7000 325° Northwest 150 173 900  Level Montreal Center
08:28AM 45.6000 -73.8333 270° West 290 334 12,800 2,520 Climbing Montreal Center
08:29AM 45.6000 -73.9500 296° West 300 345 16,100 2,940 Climbing Montreal Center
08:30AM 45.6333 -74.0500 279° West 290 334 18,700 2,340 Climbing Montreal Center
08:31AM 45.6500 -74.2000 282° West 300 345 20,800 1,920 Climbing Montreal Center
08:32AM 45.6667 -74.3167 282° West 320 368 22,600 1,800 Climbing Montreal Center
08:33AM 45.6833 -74.4333 288° West 330 380 24,500 1,680 Climbing Montreal Center
08:34AM 45.7167 -74.5833 280° West 350 403 26,000 1,380 Climbing Montreal Center
08:35AM 45.7333 -74.7167 288° West 360 414 27,300 1,320 Climbing Montreal Center
08:36AM 45.7667 -74.8667 292° West 370 426 28,700 1,500 Climbing Montreal Center
08:37AM 45.8000 -74.9833 288° West 370 426 30,400 1,440 Climbing Montreal Center
08:38AM 45.8333 -75.1333 298° West 360 414 31,600 1,140 Climbing Montreal Center
08:39AM 45.8833 -75.2667 288° West 370 426 32,700 960 Climbing Montreal Center
08:40AM 45.9167 -75.4167 290° West 370 426 33,600 960 Climbing Montreal Center
08:41AM 45.9500 -75.5500 290° West 370 426 34,700 900 Climbing Montreal Center
08:42AM 45.9833 -75.6833 290° West 370 426 35,500 720 Climbing Montreal Center
08:43AM 46.0167 -75.8167 288° West 370 426 36,200 420 Climbing Montreal Center
08:44AM 46.0500 -75.9667 286° West 380 437 36,400 300 Climbing Montreal Center
08:45AM 46.0833 -76.1333 288° West 390 449 36,800 300 Climbing Montreal Center
08:46AM 46.1167 -76.2833 288° West 390 449 37,100 300 Climbing Montreal Center
08:47AM 46.1500 -76.4333 290° West 400 460 37,500 300 Climbing Montreal Center
08:48AM 46.1833 -76.5667 285° West 400 460 37,700 240 Climbing Montreal Center
08:49AM 46.2167 -76.7500 299° West 400 460 38,000 120 Climbing Montreal Center
08:50AM 46.2667 -76.8833 279° West 410 472 38,000  Level Montreal Center
08:51AM 46.2833 -77.0333 290° West 410 472 38,000  Level Toronto Center
08:52AM 46.3167 -77.1667 285° West 410 472 38,000  Level Toronto Center
08:53AM 46.3500 -77.3500 288° West 410 472 38,000  Level Montreal Center
08:54AM 46.3833 -77.5000 286° West 410 472 38,000  Level Toronto Center
08:55AM 46.4167 -77.6667 285° West 410 472 38,000  Level Montreal Center
08:56AM 46.4500 -77.8500 299° West 410 472 38,000  Level Montreal Center
08:57AM 46.5000 -77.9833 285° West 410 472 38,000  Level Montreal Center
08:58AM 46.5333 -78.1667 279° West 410 472 38,000  Level Montreal Center
08:59AM 46.5500 -78.3167 286° West 410 472 38,000  Level Montreal Center
09:00AM 46.5833 -78.4833 288° West 410 472 38,000  Level Montreal Center
09:01AM 46.6167 -78.6333 286° West 420 483 38,000  Level Montreal Center
09:02AM 46.6500 -78.8000 292° West 420 483 38,000  Level Montreal Center
09:03AM 46.7000 -78.9833 282° West 420 483 38,000  Level Montreal Center
09:04AM 46.7167 -79.1000 286° West 420 483 38,000  Level Toronto Center
09:05AM 46.7500 -79.2667 288° West 420 483 38,000  Level Toronto Center
09:06AM 46.7833 -79.4167 286° West 420 483 38,000  Level Toronto Center
09:07AM 46.8167 -79.5833 286° West 420 483 38,000  Level Toronto Center
09:08AM 46.8500 -79.7500 286° West 420 483 38,000  Level Toronto Center
09:09AM 46.8833 -79.9167 278° West 420 483 38,000  Level Toronto Center
09:10AM 46.9000 -80.1000 286° West 420 483 38,000  Level Toronto Center
09:11AM 46.9333 -80.2667 288° West 420 483 38,000  Level Toronto Center
09:12AM 46.9667 -80.4167 286° West 420 483 38,000  Level Toronto Center
09:13AM 47.0000 -80.5833 286° West 430 495 38,000  Level Toronto Center
09:14AM 47.0333 -80.7500 288° West 430 495 38,000  Level Toronto Center
09:15AM 47.0667 -80.9000 277° West 420 483 38,000  Level Toronto Center
09:16AM 47.0833 -81.1000 288° West 420 483 38,000  Level Toronto Center
09:17AM 47.1167 -81.2500 286° West 430 495 38,000  Level Toronto Center
09:18AM 47.1500 -81.4167 285° West 430 495 38,000  Level Toronto Center
09:19AM 47.1833 -81.6000 286° West 430 495 38,000  Level Toronto Center
09:20AM 47.2167 -81.7667 277° West 430 495 38,000  Level Toronto Center
09:21AM 47.2333 -81.9833 288° West 430 495 38,000  Level Montreal Center
09:22AM 47.2667 -82.1333 277° West 440 506 38,000  Level Montreal Center
09:23AM 47.2833 -82.3333 296° West 430 495 38,000  Level Montreal Center
09:24AM 47.3333 -82.4833 288° West 430 495 38,000  Level Montreal Center
09:25AM 47.3667 -82.6333 270° West 430 495 38,000  Level Toronto Center
09:26AM 47.3667 -82.8000 285° West 430 495 38,000  Level Toronto Center
09:27AM 47.4000 -82.9833 287° West 430 495 38,000  Level Toronto Center
09:28AM 47.4333 -83.1500 278° West 430 495 38,000  Level Toronto Center
09:29AM 47.4500 -83.3333 287° West 430 495 38,000  Level Toronto Center
09:30AM 47.4833 -83.5000 278° West 430 495 38,000  Level Toronto Center
09:31AM 47.5000 -83.6833 292° West 430 495 38,000  Level Montreal Center
09:32AM 47.5500 -83.8667 278° West 420 483 38,000  Level Montreal Center
09:33AM 47.5667 -84.0333 278° West 430 495 38,000  Level Montreal Center
09:34AM 47.5833 -84.2167 290° West 430 495 38,000  Level Montreal Center
09:35AM 47.6167 -84.3500 285° West 430 495 38,000  Level Toronto Center
09:36AM 47.6500 -84.5333 279° West 430 495 38,000  Level Toronto Center
09:37AM 47.6667 -84.7000 285° West 430 495 38,000  Level Toronto Center
09:38AM 47.7000 -84.8833 270° West 430 495 38,000  Level Toronto Center
09:39AM 47.7000 -85.0500 292° West 430 495 38,000  Level Toronto Center
09:40AM 47.7500 -85.2333 270° West 430 495 38,000  Level Toronto Center
09:41AM 47.7500 -85.4167 288° West 430 495 38,000  Level Toronto Center
09:42AM 47.7833 -85.5667 277° West 430 495 38,000  Level Toronto Center
09:43AM 47.8000 -85.7667 288° West 430 495 38,000  Level Toronto Center
09:44AM 47.8333 -85.9167 277° West 430 495 38,000  Level Toronto Center
09:45AM 47.8500 -86.1167 288° West 430 495 38,000  Level Toronto Center
09:46AM 47.8833 -86.2667 277° West 440 506 38,000  Level Toronto Center
09:47AM 47.9000 -86.4667 278° West 430 495 38,000  Level Toronto Center
09:48AM 47.9167 -86.6500 285° West 440 506 38,000  Level Toronto Center
09:49AM 47.9500 -86.8333 279° West 440 506 38,000  Level Toronto Center
09:50AM 47.9667 -87.0000 285° West 440 506 38,000  Level Toronto Center
09:51AM 48.0000 -87.1833 278° West 440 506 38,000  Level Toronto Center
09:52AM 48.0167 -87.3667 279° West 440 506 38,000  Level Toronto Center
09:53AM 48.0333 -87.5333 278° West 440 506 38,000  Level Toronto Center
09:54AM 48.0500 -87.7167 285° West 440 506 38,000  Level Toronto Center
09:55AM 48.0833 -87.9000 279° West 440 506 38,000  Level Toronto Center
09:56AM 48.1000 -88.0667 278° West 440 506 38,000  Level Toronto Center
09:57AM 48.1167 -88.2500 277° West 450 518 38,000  Level Toronto Center
09:58AM 48.1333 -88.4500 288° West 440 506 38,000  Level Toronto Center
09:59AM 48.1667 -88.6000 277° West 440 506 38,000  Level Toronto Center
10:00AM 48.1833 -88.8167 270° West 440 506 38,000  Level Toronto Center
10:01AM 48.1833 -88.9833 284° West 440 506 38,000  Level Winnipeg Center
10:02AM 48.2167 -89.1833 279° West 440 506 38,000  Level Winnipeg Center
10:03AM 48.2333 -89.3500 285° West 440 506 38,000  Level Winnipeg Center
10:04AM 48.2667 -89.5333 292° West 440 506 38,000  Level Winnipeg Center
10:05AM 48.3167 -89.7167 297° West 440 506 38,000  Level Winnipeg Center
10:06AM 48.3667 -89.8667 294° West 440 506 38,000  Level Winnipeg Center
10:07AM 48.4167 -90.0333 291° West 440 506 38,000  Level Winnipeg Center
10:08AM 48.4667 -90.2333 294° West 450 518 38,000  Level Winnipeg Center
10:09AM 48.5167 -90.4000 287° West 440 506 38,000  Level Winnipeg Center
10:10AM 48.5500 -90.5667 301° West 450 518 38,000  Level Winnipeg Center
10:11AM 48.6167 -90.7333 292° West 440 506 38,000  Level Winnipeg Center
10:12AM 48.6667 -90.9167 287° West 440 506 38,000  Level Winnipeg Center
10:13AM 48.7000 -91.0833 295° West 450 518 38,000  Level Winnipeg Center
10:14AM 48.7500 -91.2500 293° West 450 518 38,000  Level Winnipeg Center
10:15AM 48.8000 -91.4333 295° West 450 518 38,000  Level Winnipeg Center
10:16AM 48.8500 -91.6000 286° West 450 518 38,000  Level Winnipeg Center
10:17AM 48.8833 -91.7833 301° West 450 518 38,000  Level Winnipeg Center
10:18AM 48.9500 -91.9500 284° West 450 518 38,000  Level Winnipeg Center
10:19AM 48.9833 -92.1500 297° West 450 518 38,000  Level Winnipeg Center
10:20AM 49.0333 -92.3000 291° West 450 518 38,000  Level Winnipeg Center
10:21AM 49.0833 -92.5000 295° West 450 518 38,000  Level Winnipeg Center
10:22AM 49.1333 -92.6667 286° West 440 506 38,000  Level Winnipeg Center
10:23AM 49.1667 -92.8500 287° West 440 506 38,000  Level Winnipeg Center
10:24AM 49.2000 -93.0167 299° West 440 506 38,000  Level Winnipeg Center
10:25AM 49.2667 -93.2000 287° West 450 518 38,000  Level Winnipeg Center
10:26AM 49.3000 -93.3667 293° West 450 518 38,000  Level Winnipeg Center
10:27AM 49.3500 -93.5500 293° West 450 518 38,000  Level Winnipeg Center
10:28AM 49.4000 -93.7333 287° West 450 518 38,000  Level Winnipeg Center
10:29AM 49.4333 -93.9000 277° West 450 518 38,000  Level Winnipeg Center
10:30AM 49.4500 -94.1167 287° West 450 518 38,000 -240 Level Winnipeg Center
10:31AM 49.4833 -94.2833 270° West 450 518 37,600 -1,320 Descending Winnipeg Center
10:32AM 49.4833 -94.4667 270° West 450 518 35,400 -2,400 Descending Winnipeg Center
10:33AM 49.4833 -94.6667 277° West 450 518 32,900 -2,520 Descending Winnipeg Center
10:34AM 49.5000 -94.8833 286° West 460 529 30,400 -2,580 Descending Winnipeg Center
10:35AM 49.5333 -95.0667 287° West 450 518 27,800 -2,520 Descending Winnipeg Center
10:36AM 49.5667 -95.2333 278° West 430 495 25,400 -2,400 Descending Winnipeg Center
10:37AM 49.5833 -95.4167 280° West 410 472 23,000 -2,340 Descending Winnipeg Center
10:38AM 49.6000 -95.5667 278° West 400 460 20,800 -2,220 Descending Winnipeg Center
10:39AM 49.6167 -95.7500 280° West 380 437 18,600 -2,100 Descending Winnipeg Center
10:40AM 49.6333 -95.9000 279° West 380 437 16,700 -2,100 Descending Winnipeg Center
10:41AM 49.6500 -96.0667 294° West 360 414 14,500 -2,100 Descending Winnipeg Center
10:42AM 49.6833 -96.1833 281° West 350 403 12,600 -1,860 Descending Winnipeg Center
10:43AM 49.7000 -96.3167 280° West 330 380 10,800 -1,620 Descending Winnipeg Center
10:44AM 49.7167 -96.4667 294° West 310 357 9,400 -1,200 Descending Winnipeg Center
10:45AM 49.7500 -96.5833 319° Northwest 280 322 8,400 -1,020 Descending Winnipeg Center
10:46AM 49.8000 -96.6500 313° West 270 311 7,400 -1,020 Descending Winnipeg Center
10:47AM 49.8500 -96.7333 321° Northwest 270 311 6,400 -1,020 Descending Winnipeg Center
10:48AM 49.9167 -96.8167 319° Northwest 260 299 5,400 -720 Descending Winnipeg Center
10:49AM 49.9667 -96.8833 327° Northwest 260 299 5,000 -240 Descending Winnipeg Center
10:50AM 50.0167 -96.9333 327° Northwest 220 253 5,000  Level Winnipeg Center
10:51AM 50.0500 -96.9667 316° Northwest 190 219 5,000  Level Winnipeg Center
10:52AM 50.0833 -97.0167 253° West 180 207 5,000 -540 Level Winnipeg Center
10:53AM 50.0667 -97.1000 270° West 180 207 4,000 -780 Descending Winnipeg Center
10:54AM 50.0667 -97.1667 203° Southwest 180 207 3,500 -600 Descending Winnipeg Center
10:55AM 50.0167 -97.2000 180° South 160 184 2,900 -720 Descending Winnipeg Center
10:56AM 49.9833 -97.2000 203° Southwest 150 173 2,100 -780 Descending Winnipeg Center
10:57AM 49.9333 -97.2333 203° Southwest 130 150 1,400 -720 Descending Winnipeg Center